Time;durP1;ratioP1;P1;durP2;ratioP2;P2;SDS_P1;SDS_P2;PMS_P1;PMS_P2;Temp;Humidity;BMP_temperature;BMP_pressure;BME280_temperature;BME280_humidity;BME280_pressure;Samples;Min_cycle;Max_cycle;Signal;HPM_P1;HPM_P2
2023/08/26 09:32:12;;;;;;;;;;;;;;;24.60;58.30;95413.09;10067214;29;1368770;-66
2023/08/26 09:42:51;;;;;;;;;;;;;;;24.65;57.99;95442.88;9921022;29;2008;-68
2023/08/26 09:47:51;;;;;;;;;;;;;;;24.64;58.09;95437.88;9913544;29;1964;-65
2023/08/26 09:52:51;;;;;;;;;;;;;;;24.71;58.12;95436.34;9924598;29;2248;-63
2023/08/26 09:57:52;;;;;;;;;;;;;;;24.71;57.99;95436.34;9909300;29;2008;-66
2023/08/26 10:02:54;;;;;;;;;;;;;;;24.76;57.76;95422.22;9921746;29;2158;-67
2023/08/26 10:07:54;;;;;;;;;;;;;;;24.84;57.99;95414.28;9924168;29;2028;-67
2023/08/26 10:12:55;;;;;;;;;;;;;;;24.88;58.20;95401.19;9924931;29;2044;-67
2023/08/26 10:17:56;;;;;;;;;;;;;;;24.92;58.25;95381.69;9914208;29;2002;-67
2023/08/26 10:22:56;;;;;;;;;;;;;;;24.99;58.37;95386.56;9929031;29;1975;-68
2023/08/26 10:27:56;;;;;;;;;;;;;;;25.04;58.54;95378.44;9924176;29;2004;-67
2023/08/26 10:33:00;;;;;;;;;;;;;;;25.06;58.32;95370.94;9897871;29;2161;-66
2023/08/26 10:38:14;;;;;;;;;;;;;;;25.09;58.26;95365.03;9886512;29;2019;-68
2023/08/26 10:43:14;;;;;;;;;;;;;;;25.10;58.27;95353.31;9889494;29;2006;-67
2023/08/26 10:48:14;;;;;;;;;;;;;;;25.11;58.10;95331.03;9902029;29;1978;-68
2023/08/26 10:53:16;;;;;;;;;;;;;;;25.17;58.10;95328.97;9893838;29;2042;-68
2023/08/26 10:58:19;;;;;;;;;;;;;;;25.19;57.82;95332.88;9896143;29;1966;-68
2023/08/26 11:03:20;;;;;;;;;;;;;;;25.18;56.85;95315.44;9897920;29;2109;-68
2023/08/26 11:08:20;;;;;;;;;;;;;;;25.22;57.38;95312.94;9882094;29;1999;-68
2023/08/26 11:13:21;;;;;;;;;;;;;;;25.22;57.20;95310.28;9896374;29;2248;-68
2023/08/26 11:18:22;;;;;;;;;;;;;;;25.21;57.32;95314.78;9897539;29;1965;-68
2023/08/26 11:23:22;;;;;;;;;;;;;;;25.22;57.28;95308.41;9906567;29;2027;-66
2023/08/26 11:28:22;;;;;;;;;;;;;;;25.24;57.39;95303.56;9896214;29;1969;-67
2023/08/26 11:39:01;;;;;;;;;;;;;;;25.31;57.17;95295.91;9893423;29;2193;-68
2023/08/26 11:44:01;;;;;;;;;;;;;;;25.36;57.02;95279.03;9910994;29;2122;-67
2023/08/26 11:49:01;;;;;;;;;;;;;;;25.39;57.18;95267.81;9916617;29;2264;-68
2023/08/26 11:54:02;;;;;;;;;;;;;;;25.43;57.17;95271.41;9933251;29;2010;-66
2023/08/26 11:59:02;;;;;;;;;;;;;;;25.44;57.02;95257.03;9931332;29;2001;-67
2023/08/26 12:04:11;;;;;;;;;;;;;;;25.45;56.92;95251.41;9931106;29;2017;-68
2023/08/26 12:09:11;;;;;;;;;;;;;;;25.47;56.58;95243.91;9931835;29;2290;-66
2023/08/26 12:14:18;;;;;;;;;;;;;;;25.51;56.74;95241.44;9945079;29;2009;-68
2023/08/26 12:19:19;;;;;;;;;;;;;;;25.51;56.81;95234.22;9950900;29;2035;-67
2023/08/26 12:24:25;;;;;;;;;;;;;;;25.48;56.67;95213.66;9950727;29;1943;-68
2023/08/26 12:29:25;;;;;;;;;;;;;;;25.48;55.96;95202.25;9955627;29;2010;-67
2023/08/26 12:34:25;;;;;;;;;;;;;;;25.48;56.31;95196.94;9949945;29;1948;-68
2023/08/26 12:39:26;;;;;;;;;;;;;;;25.51;56.25;95191.75;9935092;29;1737;-70
2023/08/26 12:44:26;;;;;;;;;;;;;;;25.53;56.46;95172.88;9935232;29;1975;-68
2023/08/26 12:49:26;;;;;;;;;;;;;;;25.55;56.48;95154.78;9936198;29;1888;-69
2023/08/26 12:54:27;;;;;;;;;;;;;;;25.56;56.52;95151.78;9939007;29;1912;-69
2023/08/26 12:59:27;;;;;;;;;;;;;;;25.58;56.42;95122.28;9935256;29;1995;-69
2023/08/26 13:04:27;;;;;;;;;;;;;;;25.58;56.37;95123.06;9937134;29;1912;-69
2023/08/26 13:09:27;;;;;;;;;;;;;;;25.60;56.34;95125.38;9934412;29;1931;-69
2023/08/26 13:14:28;;;;;;;;;;;;;;;25.63;56.26;95146.78;9935826;29;1936;-69
2023/08/26 13:19:28;;;;;;;;;;;;;;;25.63;56.19;95130.84;9933220;29;1830;-70
2023/08/26 13:24:28;;;;;;;;;;;;;;;25.64;56.13;95131.59;9933615;29;1980;-71
2023/08/26 13:29:28;;;;;;;;;;;;;;;25.64;56.25;95103.19;9921739;29;2334;-69
2023/08/26 13:34:29;;;;;;;;;;;;;;;25.66;55.97;95077.09;9936530;29;1957;-69
2023/08/26 13:39:30;;;;;;;;;;;;;;;25.65;56.04;95075.56;9931965;29;1779;-68
2023/08/26 13:44:30;;;;;;;;;;;;;;;25.68;55.87;95074.91;9922654;29;1982;-69
2023/08/26 13:49:31;;;;;;;;;;;;;;;25.71;55.87;95074.28;9932228;29;1462;-69
2023/08/26 13:54:31;;;;;;;;;;;;;;;25.71;55.77;95100.03;9916341;29;1706;-68
2023/08/26 13:59:32;;;;;;;;;;;;;;;25.71;55.62;95110.66;9933621;29;1628;-68
2023/08/26 14:04:32;;;;;;;;;;;;;;;25.70;55.53;95123.16;9925675;29;1936;-67
2023/08/26 14:09:32;;;;;;;;;;;;;;;25.71;55.46;95127.38;9935780;29;1486;-68
2023/08/26 14:14:33;;;;;;;;;;;;;;;25.71;55.16;95140.66;9934832;29;1496;-68
2023/08/26 14:19:36;;;;;;;;;;;;;;;25.70;55.16;95147.03;9935053;29;1508;-68
2023/08/26 14:24:36;;;;;;;;;;;;;;;25.70;55.02;95189.50;9935681;29;1900;-68
2023/08/26 14:29:36;;;;;;;;;;;;;;;25.72;55.16;95239.63;9943845;29;1470;-65
2023/08/26 14:34:36;;;;;;;;;;;;;;;25.71;55.32;95254.78;9943776;29;1532;-68
2023/08/26 14:39:40;;;;;;;;;;;;;;;25.69;55.49;95291.50;9936383;29;1858;-66
2023/08/26 14:44:40;;;;;;;;;;;;;;;25.71;55.34;95294.59;9936974;29;2072;-67
2023/08/26 14:49:40;;;;;;;;;;;;;;;25.74;55.48;95373.59;9938195;29;1957;-67
2023/08/26 14:54:41;;;;;;;;;;;;;;;25.77;55.23;95415.47;9933598;29;2111;-67
2023/08/26 14:59:43;;;;;;;;;;;;;;;25.80;55.30;95419.38;9932253;29;1960;-68
2023/08/26 15:04:43;;;;;;;;;;;;;;;25.82;55.55;95391.41;9933531;29;1978;-68
2023/08/26 15:09:43;;;;;;;;;;;;;;;25.83;55.43;95379.69;9932142;29;7312;-68
2023/08/26 15:14:45;;;;;;;;;;;;;;;25.84;55.55;95316.75;9919371;29;5416;-68
2023/08/26 15:19:45;;;;;;;;;;;;;;;25.84;55.62;95285.66;9921591;29;2342;-69
2023/08/26 15:24:45;;;;;;;;;;;;;;;25.75;54.95;95390.31;9932484;29;5428;-75
2023/08/26 15:29:46;;;;;;;;;;;;;;;25.72;54.82;95404.22;9934855;29;1984;-69
2023/08/26 15:34:46;;;;;;;;;;;;;;;25.65;53.80;95455.16;9936297;29;1937;-71
2023/08/26 15:39:46;;;;;;;;;;;;;;;25.54;53.20;95467.16;9919033;29;5460;-71
2023/08/26 15:44:47;;;;;;;;;;;;;;;24.56;52.22;95486.34;9931175;29;1988;-71
2023/08/26 15:49:48;;;;;;;;;;;;;;;23.82;52.83;95475.41;9931903;29;2055;-72
2023/08/26 15:54:48;;;;;;;;;;;;;;;23.69;53.98;95436.56;9927647;29;1992;-72
2023/08/26 15:59:48;;;;;;;;;;;;;;;23.24;54.45;95491.25;9932469;29;1937;-72
2023/08/26 16:04:49;;;;;;;;;;;;;;;22.89;55.23;95488.53;9932542;29;2031;-72
2023/08/26 16:09:49;;;;;;;;;;;;;;;22.55;55.90;95463.22;9915063;29;2002;-69
2023/08/26 16:14:50;;;;;;;;;;;;;;;22.50;56.25;95459.91;9915207;29;6405;-71
2023/08/26 16:19:50;;;;;;;;;;;;;;;22.50;56.37;95491.59;9919617;29;1992;-71
2023/08/26 16:24:50;;;;;;;;;;;;;;;22.43;56.96;95481.41;9928584;29;2068;-71
2023/08/26 16:29:51;;;;;;;;;;;;;;;22.25;56.98;95487.56;9933695;29;2110;-70
2023/08/26 16:34:51;;;;;;;;;;;;;;;22.10;57.54;95471.16;9931444;29;1986;-72
2023/08/26 16:39:51;;;;;;;;;;;;;;;22.16;57.69;95491.13;9926513;29;1984;-70
2023/08/26 16:44:52;;;;;;;;;;;;;;;22.15;57.77;95490.38;9929601;29;1988;-67
2023/08/26 16:49:52;;;;;;;;;;;;;;;21.97;58.55;95488.53;9930045;29;1999;-67
2023/08/26 16:54:52;;;;;;;;;;;;;;;21.97;58.69;95477.22;9927138;29;2068;-68
2023/08/26 16:59:53;;;;;;;;;;;;;;;22.12;58.75;95458.47;9934932;29;1985;-70
2023/08/26 17:04:53;;;;;;;;;;;;;;;21.99;58.98;95457.34;9916955;29;1988;-68
2023/08/26 17:09:53;;;;;;;;;;;;;;;22.30;58.38;95439.13;9932923;29;1995;-71
2023/08/26 17:14:53;;;;;;;;;;;;;;;22.60;57.87;95438.63;9915813;29;5312;-70
2023/08/26 17:19:54;;;;;;;;;;;;;;;22.79;57.57;95454.38;9931654;29;1922;-71
2023/08/26 17:24:54;;;;;;;;;;;;;;;22.87;57.46;95443.91;9926460;29;1995;-71
2023/08/26 17:29:54;;;;;;;;;;;;;;;23.03;57.40;95461.00;9928122;29;1955;-70
2023/08/26 17:34:55;;;;;;;;;;;;;;;23.11;57.18;95481.47;9909604;29;2074;-71
2023/08/26 17:39:55;;;;;;;;;;;;;;;23.21;57.31;95469.88;9929175;29;2219;-69
2023/08/26 17:44:55;;;;;;;;;;;;;;;23.26;57.16;95459.22;9925532;29;2028;-70
2023/08/26 17:49:55;;;;;;;;;;;;;;;23.36;56.97;95441.28;9928564;29;2022;-71
2023/08/26 17:54:57;;;;;;;;;;;;;;;23.37;56.75;95452.63;9929428;29;1915;-69
2023/08/26 17:59:58;;;;;;;;;;;;;;;23.38;56.32;95464.78;9927792;29;1914;-71
2023/08/26 18:04:58;;;;;;;;;;;;;;;23.36;56.63;95462.44;9914832;29;1959;-78
2023/08/26 18:09:59;;;;;;;;;;;;;;;23.36;56.18;95451.88;9927211;29;2035;-73
2023/08/26 18:14:59;;;;;;;;;;;;;;;23.35;56.36;95450.28;9908229;29;2051;-75
2023/08/26 18:19:59;;;;;;;;;;;;;;;23.37;56.26;95468.50;9928787;29;1962;-76
2023/08/26 18:25:00;;;;;;;;;;;;;;;23.37;56.09;95465.84;9927529;29;2042;-73
2023/08/26 18:30:02;;;;;;;;;;;;;;;23.40;55.89;95466.06;9922642;29;2023;-72
2023/08/26 18:35:06;;;;;;;;;;;;;;;23.38;56.14;95472.72;9926084;29;1963;-74
2023/08/26 18:40:07;;;;;;;;;;;;;;;23.32;55.86;95461.47;9930934;29;1967;-76
2023/08/26 18:45:10;;;;;;;;;;;;;;;23.34;55.66;95466.47;9929172;29;2074;-75
2023/08/26 18:50:11;;;;;;;;;;;;;;;23.33;55.61;95467.53;9915755;29;1971;-74
2023/08/26 18:55:11;;;;;;;;;;;;;;;23.37;55.63;95463.22;9926690;29;1907;-75
2023/08/26 19:00:11;;;;;;;;;;;;;;;23.35;55.41;95454.78;9911208;29;1999;-76
2023/08/26 19:05:12;;;;;;;;;;;;;;;23.38;55.90;95447.06;9911542;29;2013;-76
2023/08/26 19:10:12;;;;;;;;;;;;;;;23.43;56.01;95457.50;9929123;29;1976;-77
2023/08/26 19:15:13;;;;;;;;;;;;;;;23.48;55.98;95459.28;9928986;29;5105;-76
2023/08/26 19:20:14;;;;;;;;;;;;;;;23.49;55.52;95465.34;9940466;29;1914;-77
2023/08/26 19:25:14;;;;;;;;;;;;;;;23.46;55.62;95479.94;9937617;29;1922;-76
2023/08/26 19:30:15;;;;;;;;;;;;;;;23.48;55.69;95484.94;9935791;29;1970;-75
2023/08/26 19:35:15;;;;;;;;;;;;;;;23.51;55.63;95487.00;9934919;29;1968;-77
2023/08/26 19:40:15;;;;;;;;;;;;;;;23.51;55.61;95471.13;9930650;29;2031;-77
2023/08/26 19:45:15;;;;;;;;;;;;;;;23.51;55.39;95469.28;9933249;29;2007;-72
2023/08/26 19:50:16;;;;;;;;;;;;;;;23.53;55.31;95482.19;9929970;29;2401;-71
2023/08/26 19:55:16;;;;;;;;;;;;;;;23.55;55.52;95494.06;9930093;29;2022;-74
2023/08/26 20:00:16;;;;;;;;;;;;;;;23.58;55.48;95501.38;9916562;29;2358;-70
2023/08/26 20:05:16;;;;;;;;;;;;;;;23.62;55.38;95499.69;9931747;29;1982;-74
2023/08/26 20:10:17;;;;;;;;;;;;;;;23.66;55.51;95505.19;9934244;29;1966;-71
2023/08/26 20:15:17;;;;;;;;;;;;;;;23.70;55.43;95512.22;9933324;29;5188;-68
2023/08/26 20:20:18;;;;;;;;;;;;;;;23.75;55.21;95506.81;9931540;29;2038;-69
2023/08/26 20:25:18;;;;;;;;;;;;;;;23.75;55.08;95512.13;9935476;29;1931;-68
2023/08/26 20:30:18;;;;;;;;;;;;;;;23.75;54.89;95503.38;9920213;29;1475;-68
2023/08/26 20:35:20;;;;;;;;;;;;;;;23.72;54.80;95499.47;9933335;29;1903;-69
2023/08/26 20:40:20;;;;;;;;;;;;;;;23.74;54.79;95515.81;9930051;29;1935;-68
2023/08/26 20:45:20;;;;;;;;;;;;;;;23.77;54.92;95514.44;9932469;29;2113;-69
2023/08/26 20:50:21;;;;;;;;;;;;;;;23.78;54.96;95490.31;9934833;29;1999;-68
2023/08/26 20:55:21;;;;;;;;;;;;;;;23.76;54.68;95505.72;9913068;29;2343;-68
2023/08/26 21:00:21;;;;;;;;;;;;;;;23.78;54.69;95506.22;9931371;29;1961;-68
2023/08/26 21:05:22;;;;;;;;;;;;;;;23.81;54.54;95496.88;9930696;29;1982;-69
2023/08/26 21:10:23;;;;;;;;;;;;;;;23.81;54.73;95495.03;9933033;29;2049;-68
2023/08/26 21:15:23;;;;;;;;;;;;;;;23.83;54.59;95492.88;9931235;29;2113;-68
2023/08/26 21:20:25;;;;;;;;;;;;;;;23.88;54.52;95478.75;9932207;29;2001;-68
2023/08/26 21:25:25;;;;;;;;;;;;;;;23.84;54.65;95473.28;9931986;29;2084;-68
2023/08/26 21:30:25;;;;;;;;;;;;;;;23.85;54.78;95472.19;9928212;29;1966;-68
2023/08/26 21:35:25;;;;;;;;;;;;;;;23.88;54.44;95473.44;9929622;29;2019;-68
2023/08/26 21:40:26;;;;;;;;;;;;;;;23.87;54.32;95456.78;9921361;29;2005;-68
2023/08/26 21:45:26;;;;;;;;;;;;;;;23.87;54.55;95455.97;9932192;29;1935;-68
2023/08/26 21:50:26;;;;;;;;;;;;;;;23.90;54.33;95431.56;9915759;29;2002;-68
2023/08/26 21:55:26;;;;;;;;;;;;;;;23.91;54.42;95433.13;9922556;29;2058;-68
2023/08/26 22:00:27;;;;;;;;;;;;;;;23.89;54.46;95436.06;9930036;29;1928;-68
2023/08/26 22:05:29;;;;;;;;;;;;;;;23.87;54.08;95440.88;9930542;29;1962;-69
2023/08/26 22:10:33;;;;;;;;;;;;;;;23.84;54.06;95435.44;9927711;29;1943;-69
2023/08/26 22:15:42;;;;;;;;;;;;;;;23.83;54.00;95417.97;9910419;29;5059;-69
2023/08/26 22:20:43;;;;;;;;;;;;;;;23.74;53.78;95414.50;9926616;29;2332;-68
2023/08/26 22:25:43;;;;;;;;;;;;;;;23.75;54.15;95422.13;9909101;29;2253;-68
2023/08/26 22:30:44;;;;;;;;;;;;;;;23.80;54.04;95418.59;9926332;29;1909;-68
2023/08/26 22:35:45;;;;;;;;;;;;;;;23.81;54.01;95409.53;9927662;29;2070;-68
2023/08/26 22:40:46;;;;;;;;;;;;;;;23.84;53.96;95404.44;9920597;29;2031;-68
2023/08/26 22:45:47;;;;;;;;;;;;;;;23.86;53.82;95399.63;9924876;29;2267;-68
2023/08/26 22:50:47;;;;;;;;;;;;;;;23.84;53.78;95377.97;9935648;29;2426;-68
2023/08/26 22:55:47;;;;;;;;;;;;;;;23.84;54.02;95375.34;9934532;29;2002;-68
2023/08/26 23:00:48;;;;;;;;;;;;;;;23.83;53.86;95360.53;9936643;29;1962;-68
2023/08/26 23:05:48;;;;;;;;;;;;;;;23.91;53.82;95341.25;9933824;29;2022;-68
2023/08/26 23:10:48;;;;;;;;;;;;;;;23.93;53.79;95333.00;9934421;29;1934;-68
2023/08/26 23:15:48;;;;;;;;;;;;;;;23.95;53.80;95336.13;9927411;29;4579;-68
2023/08/26 23:20:49;;;;;;;;;;;;;;;23.95;53.64;95328.97;9929894;29;1954;-68
2023/08/26 23:25:49;;;;;;;;;;;;;;;23.94;53.65;95303.59;9929824;29;2014;-68
2023/08/26 23:30:50;;;;;;;;;;;;;;;23.94;53.62;95298.31;9932389;29;1958;-68
2023/08/26 23:35:51;;;;;;;;;;;;;;;23.99;53.52;95289.41;9914999;29;1974;-68
2023/08/26 23:40:51;;;;;;;;;;;;;;;24.02;53.86;95278.22;9927582;29;2041;-68
2023/08/26 23:45:51;;;;;;;;;;;;;;;24.03;53.43;95280.59;9929828;29;2244;-68
2023/08/26 23:50:51;;;;;;;;;;;;;;;24.03;53.51;95269.19;9928941;29;1948;-68
2023/08/26 23:55:52;;;;;;;;;;;;;;;24.04;53.39;95268.94;9916708;29;1937;-68
